Michael & Kristen — WBA4573 — position and weather

sailwx.info

Track history (hours):
 
Tides and Currents Weather Stations Pressure Air Temp Water Temp Dewpoint Dewpoint Depression Visibility Wind Speed Wind Dir Waves Ship Positions

Michael & Kristen

Owner: RAYMOND, CHARLES E, BEVERLY, MA. More information available from US FCC via Universal Licensing System and Coast Guard Vessel Documentation Center.

Last reported at 2018-Jun-19 20:48 UTC. Time now 2018-Jun-21 10:00 UTC.
Position N 42°37' W 070°01'.

Length 23 m; draft 2 m.

Type: Fishing. MMSI: 367138530.

Date/timePositionNaut miles runAvg speedWind from/ knotsBaromVisibWave heightAir tempDewpointWater temp
2018-Jun-19 20:48N 42°37' W 070°01'3 8.5
2018-Jun-19 20:29N 42°37' W 070°05'4 8.5
2018-Jun-19 19:59N 42°37' W 070°10'4 8.0
2018-Jun-19 19:30N 42°36' W 070°16'4 7.9
2018-Jun-19 19:00N 42°36' W 070°21'4 8.0
2018-Jun-19 18:30N 42°35' W 070°26'4 8.1
2018-Jun-19 18:00N 42°35' W 070°32'4 7.7
2018-Jun-19 17:30N 42°34' W 070°37'3 5.7
2018-Jun-19 17:00N 42°36' W 070°40'1 2.3
2018-Jun-19 16:30N 42°37' W 070°39'  
Track history (hours):
 
Tides and Currents Weather Stations Pressure Air Temp Water Temp Dewpoint Dewpoint Depression Visibility Wind Speed Wind Dir Waves Ship Positions

Michael & Kristen

Owner: RAYMOND, CHARLES E, BEVERLY, MA. More information available from US FCC via Universal Licensing System and Coast Guard Vessel Documentation Center.

Last reported at 2018-Jun-19 20:48 UTC. Time now 2018-Jun-21 10:00 UTC.
Position N 42°37' W 070°01'.

Length 23 m; draft 2 m.

Type: Fishing. MMSI: 367138530.

Date/timePositionNaut miles runAvg speedWind from/ knotsBaromVisibWave heightAir tempDewpointWater temp
2018-Jun-19 20:48N 42°37' W 070°01'3 8.5
2018-Jun-19 20:29N 42°37' W 070°05'4 8.5
2018-Jun-19 19:59N 42°37' W 070°10'4 8.0
2018-Jun-19 19:30N 42°36' W 070°16'4 7.9
2018-Jun-19 19:00N 42°36' W 070°21'4 8.0
2018-Jun-19 18:30N 42°35' W 070°26'4 8.1
2018-Jun-19 18:00N 42°35' W 070°32'4 7.7
2018-Jun-19 17:30N 42°34' W 070°37'3 5.7
2018-Jun-19 17:00N 42°36' W 070°40'1 2.3
2018-Jun-19 16:30N 42°37' W 070°39'  

Dump ship's entire track history